Aviation Digital Data Service (ADDS)

Output produced by METARs form (0520 UTC 19 January 2018)
found at http://www.aviationweather.gov/adds/metars/
 
METAR text: RJNK 190500Z 01010KT 340V040 9999 FEW030 06/M03 Q1021
Conditions at: RJNK (KOMATSU (CIV/JAS, JP) observed 0500 UTC 19 January 2018
Temperature: 6.0°C (43°F)
Dewpoint: -3.0°C (27°F) [RH = 52%]
Pressure (altimeter): 30.15 inches Hg (1021.0 mb)
Winds: from the N (10 degrees) at 12 MPH (10 knots; 5.2 m/s)
Visibility: 6 or more miles (10+ km)
Ceiling: at least 12,000 feet AGL
Clouds: few clouds at 3000 feet AGL
Weather: no significant weather observed at this time